Altheimer, Arkansas
Current Conditions -  °F | °C
As of 5:53 PM on Sunday 21 Dec 2014 (Local Time) from KPBF Reporting Station
Clear Clear  
Wind Chill: 43°   Ceiling: Unl
Heat Index: 47°   Visibility: 10mi
Dew Point: 38°   Wind: 8mph
Humidity: 71%   Direction: 120°ESE
Pressure: 29.96"   Gusts: NA
Location:  34.32°N, 91.85°W
Report Text: KPBF 212353Z AUTO 12007KT 10SM CLR 08/03 A2996 RMK AO2 SLP145 T00830033 10133 20083 56018
Loading
Personal Weather Stations






























Interactive Weather Map New forecast layout! Learn more

10-Day Weather Forecast

Advertisements
Track Severe Weather on mobile